aviador You're here:

EPSC Decoded Metar

SZCZECIN in POLAND
Report Time2017-10-24 02:00:00
UTC Time2017-10-24 02:22:33
Flight Rules lifr LIFR
Wind030° at 03 kt
W.Decomp.*RWY 31: 0.7 kt HW 2.9 kt RCW
W.Rank030° ranks 29
Current wind is below 030° avg. (5.2)
Visibility6000 m
Phenomena:N/A
Clouds:Broken 002 Hf
Overcast 003 Hf
Ceiling200 ft
Temp09°C (ISA -6)
Dew Point09°C (100% RH)
AAT7.7°C
QNH1021 hPa
Density Alt-823 ft
Elevation10 ft
Report Wrong Elevation
Raw Report
EPSC 240200Z 03003KT 360V060 6000 BKN002 OVC003 09/09 Q1021=

Extra information for EPSC:More info

Metar Taf Metar & Taf Last 4 Metars F.Rules Stats Wind Profile Meteogram Temp Stats Airport Information Weather charts Add Link Nearby VenuesMetar ALERT Operation Metar Decoded Social comments